Time;durP1;ratioP1;P1;durP2;ratioP2;P2;SDS_P1;SDS_P2;PMS_P1;PMS_P2;Temp;Humidity;BMP_temperature;BMP_pressure;BME280_temperature;BME280_humidity;BME280_pressure;Samples;Min_cycle;Max_cycle;Signal;HPM_P1;HPM_P2
2023/12/18 00:01:25;;;;;;;11.30;4.20;;;6.00;99.90;;;;;;5032894;28;20116;-53
2023/12/18 00:03:51;;;;;;;6.50;3.30;;;5.90;99.90;;;;;;5032859;28;20033;-51
2023/12/18 00:06:17;;;;;;;9.30;3.90;;;6.00;99.90;;;;;;5032816;28;20029;-52
2023/12/18 00:08:43;;;;;;;10.23;4.20;;;6.00;99.90;;;;;;4998466;28;20496;-56
2023/12/18 00:11:08;;;;;;;10.70;3.50;;;5.90;99.90;;;;;;5032660;28;20386;-55
2023/12/18 00:13:34;;;;;;;9.17;4.00;;;5.90;99.90;;;;;;5032695;28;20167;-53
2023/12/18 00:15:59;;;;;;;12.33;3.80;;;5.90;99.90;;;;;;5032698;28;20029;-52
2023/12/18 00:18:25;;;;;;;8.70;4.20;;;5.90;99.90;;;;;;5032366;28;20041;-53
2023/12/18 00:20:52;;;;;;;6.93;3.50;;;5.80;99.90;;;;;;5032479;28;20029;-55
2023/12/18 00:23:18;;;;;;;12.37;4.13;;;5.80;99.90;;;;;;5032739;28;20389;-56
2023/12/18 00:25:44;;;;;;;10.77;4.70;;;5.70;99.90;;;;;;5032488;28;20025;-51
2023/12/18 00:28:09;;;;;;;9.73;3.90;;;5.70;99.90;;;;;;5032162;28;20116;-55
2023/12/18 00:30:35;;;;;;;7.33;3.30;;;5.80;99.90;;;;;;5032317;28;20478;-56
2023/12/18 00:33:01;;;;;;;7.80;3.10;;;5.80;99.90;;;;;;5014691;28;20041;-51
2023/12/18 00:35:28;;;;;;;13.00;3.60;;;5.80;99.90;;;;;;5014571;28;20036;-51
2023/12/18 00:37:54;;;;;;;8.33;3.83;;;5.90;99.90;;;;;;5032009;28;20037;-51
2023/12/18 00:40:20;;;;;;;8.83;3.17;;;5.80;99.90;;;;;;5032105;28;20041;-50
2023/12/18 00:42:47;;;;;;;11.83;2.97;;;5.80;99.90;;;;;;5032180;28;20029;-52
2023/12/18 00:45:16;;;;;;;6.40;2.53;;;5.80;99.90;;;;;;5032218;28;20032;-55
2023/12/18 00:47:42;;;;;;;7.65;2.80;;;5.80;99.90;;;;;;5031958;28;20116;-55
2023/12/18 00:50:09;;;;;;;7.30;2.70;;;5.80;99.90;;;;;;5014428;28;20033;-54
2023/12/18 00:52:39;;;;;;;8.63;3.17;;;5.90;99.90;;;;;;5031980;28;20041;-55
2023/12/18 00:55:06;;;;;;;7.10;3.05;;;5.90;99.90;;;;;;5032049;28;20030;-54
2023/12/18 00:57:32;;;;;;;7.90;2.80;;;5.90;99.90;;;;;;5031621;28;20030;-54
2023/12/18 00:59:58;;;;;;;11.37;3.60;;;5.80;99.90;;;;;;5031747;28;20082;-55
2023/12/18 01:02:23;;;;;;;9.13;3.00;;;5.90;99.90;;;;;;5013948;28;20033;-53
2023/12/18 01:04:49;;;;;;;5.17;3.00;;;5.90;99.90;;;;;;5014087;28;20029;-54
2023/12/18 01:07:14;;;;;;;7.43;2.80;;;5.90;99.90;;;;;;5031731;28;20433;-54
2023/12/18 01:09:40;;;;;;;14.03;3.60;;;5.80;99.90;;;;;;5014172;28;20069;-54
2023/12/18 01:12:06;;;;;;;6.57;3.00;;;5.80;99.90;;;;;;5031711;28;20044;-51
2023/12/18 01:14:32;;;;;;;7.13;2.80;;;5.70;99.90;;;;;;5031858;28;20037;-55
2023/12/18 01:16:58;;;;;;;7.77;3.20;;;5.80;99.90;;;;;;5031550;28;20029;-53
2023/12/18 01:19:23;;;;;;;9.27;2.93;;;5.70;99.90;;;;;;5031609;28;20481;-50
2023/12/18 01:21:49;;;;;;;9.23;3.37;;;5.70;99.90;;;;;;5031707;28;20397;-56
2023/12/18 01:24:14;;;;;;;7.30;3.03;;;5.70;99.90;;;;;;5031655;28;20072;-55
2023/12/18 01:26:40;;;;;;;10.03;3.40;;;5.70;99.90;;;;;;5031540;28;20494;-50
2023/12/18 01:29:05;;;;;;;12.03;3.00;;;5.60;99.90;;;;;;5031472;28;20394;-52
2023/12/18 01:31:31;;;;;;;9.03;3.47;;;5.60;99.90;;;;;;5031509;28;20112;-52
2023/12/18 01:33:58;;;;;;;6.77;3.47;;;5.50;99.90;;;;;;5031660;28;20041;-51
2023/12/18 01:36:24;;;;;;;7.93;3.50;;;5.60;99.90;;;;;;5013540;28;20034;-50
2023/12/18 01:38:50;;;;;;;7.10;2.87;;;5.70;99.90;;;;;;5031404;28;20030;-52
2023/12/18 01:41:16;;;;;;;9.57;2.80;;;5.80;99.90;;;;;;5013635;28;20038;-54
2023/12/18 01:43:42;;;;;;;8.10;3.33;;;5.90;99.90;;;;;;5031799;28;20533;-52
2023/12/18 01:46:08;;;;;;;9.17;2.90;;;5.90;99.90;;;;;;5031442;28;20133;-51
2023/12/18 01:48:34;;;;;;;10.27;2.73;;;5.90;99.90;;;;;;5013524;28;20045;-53
2023/12/18 01:51:00;;;;;;;9.17;3.13;;;5.90;99.90;;;;;;5031563;28;20037;-52
2023/12/18 01:53:31;;;;;;;8.60;2.93;;;6.00;99.90;;;;;;5031433;28;20112;-51
2023/12/18 01:55:57;;;;;;;9.40;3.53;;;5.90;99.90;;;;;;5031416;28;20108;-49
2023/12/18 01:58:24;;;;;;;10.20;3.33;;;6.00;99.90;;;;;;5031196;28;20175;-51
2023/12/18 02:00:51;;;;;;;7.03;3.13;;;6.00;99.90;;;;;;5031173;28;20034;-53
2023/12/18 02:03:18;;;;;;;12.67;3.50;;;6.00;99.90;;;;;;5031425;28;20115;-52
2023/12/18 02:05:44;;;;;;;7.73;3.20;;;6.00;99.90;;;;;;5031339;28;20040;-51
2023/12/18 02:08:10;;;;;;;8.87;3.27;;;6.10;99.90;;;;;;5031219;28;20486;-51
2023/12/18 02:10:37;;;;;;;6.93;3.23;;;6.10;99.90;;;;;;5032530;28;20037;-52
2023/12/18 02:13:03;;;;;;;7.77;2.50;;;6.10;99.90;;;;;;5035116;28;20429;-53
2023/12/18 02:15:28;;;;;;;9.83;3.47;;;6.10;99.90;;;;;;5035214;28;20037;-52
2023/12/18 02:17:54;;;;;;;9.40;3.13;;;6.00;99.90;;;;;;5034593;28;20026;-54
2023/12/18 02:20:20;;;;;;;6.67;2.83;;;6.10;99.90;;;;;;5034737;28;20129;-50
2023/12/18 02:22:45;;;;;;;4.80;2.20;;;6.00;99.90;;;;;;5016974;28;20026;-54
2023/12/18 02:25:12;;;;;;;8.57;3.23;;;5.90;99.90;;;;;;5034685;28;20025;-53
2023/12/18 02:27:38;;;;;;;5.57;2.50;;;6.00;99.90;;;;;;5034527;28;20021;-53
2023/12/18 02:30:05;;;;;;;7.57;2.80;;;5.90;99.90;;;;;;5034540;28;20500;-49
2023/12/18 02:32:30;;;;;;;6.70;2.73;;;5.90;99.90;;;;;;5034555;28;20033;-51
2023/12/18 02:34:56;;;;;;;7.53;2.97;;;6.00;99.90;;;;;;5034603;28;20570;-54
2023/12/18 02:37:23;;;;;;;7.30;2.90;;;6.00;99.90;;;;;;5034301;28;20033;-53
2023/12/18 02:39:49;;;;;;;5.93;2.80;;;6.00;99.90;;;;;;5034260;28;20394;-53
2023/12/18 02:42:14;;;;;;;7.03;2.70;;;6.00;99.90;;;;;;5034319;28;20037;-51
2023/12/18 02:44:40;;;;;;;8.37;3.20;;;6.00;99.90;;;;;;5034334;28;20052;-52
2023/12/18 02:47:06;;;;;;;9.17;3.07;;;6.00;99.90;;;;;;5016430;28;20073;-55
2023/12/18 02:49:32;;;;;;;11.27;3.10;;;5.90;99.90;;;;;;5034170;28;20042;-54
2023/12/18 02:51:57;;;;;;;10.60;3.03;;;5.90;99.90;;;;;;5034232;28;20021;-55
2023/12/18 02:54:23;;;;;;;6.50;3.33;;;5.90;99.90;;;;;;5034072;28;20068;-53
2023/12/18 02:56:48;;;;;;;7.87;3.10;;;5.90;99.90;;;;;;5034015;28;20034;-53
2023/12/18 02:59:14;;;;;;;6.57;3.03;;;5.90;99.90;;;;;;5034017;28;20057;-52
2023/12/18 03:01:39;;;;;;;11.90;4.33;;;5.80;99.90;;;;;;5033972;28;20037;-50
2023/12/18 03:04:05;;;;;;;17.07;5.90;;;5.70;99.90;;;;;;5033971;28;20025;-51
2023/12/18 03:06:31;;;;;;;12.57;5.40;;;5.70;99.90;;;;;;5033784;28;20071;-52
2023/12/18 03:08:56;;;;;;;7.73;3.87;;;5.70;99.90;;;;;;5033904;28;20025;-53
2023/12/18 03:11:22;;;;;;;10.87;4.70;;;5.70;99.90;;;;;;5034014;28;20501;-55
2023/12/18 03:13:47;;;;;;;12.30;3.93;;;5.70;99.90;;;;;;5033782;28;20036;-55
2023/12/18 03:16:14;;;;;;;16.20;3.53;;;5.60;99.90;;;;;;5016012;28;20032;-51
2023/12/18 03:18:40;;;;;;;10.10;3.57;;;5.50;99.90;;;;;;5033448;28;20033;-51
2023/12/18 03:21:10;;;;;;;10.27;3.50;;;5.50;99.90;;;;;;5033513;28;20505;-52
2023/12/18 03:23:36;;;;;;;8.03;3.70;;;5.40;99.90;;;;;;5033605;28;20034;-54
2023/12/18 03:26:01;;;;;;;7.97;4.07;;;5.40;99.90;;;;;;5033574;28;20044;-52
2023/12/18 03:28:27;;;;;;;10.93;4.03;;;5.40;99.90;;;;;;5033241;28;20052;-51
2023/12/18 03:30:52;;;;;;;9.77;4.47;;;5.40;99.90;;;;;;5033491;28;20478;-50
2023/12/18 03:33:19;;;;;;;14.87;5.23;;;5.40;99.90;;;;;;5033386;28;20120;-50
2023/12/18 03:35:44;;;;;;;13.97;5.43;;;5.40;99.90;;;;;;5033388;28;20043;-51
2023/12/18 03:38:11;;;;;;;13.20;5.70;;;5.40;99.90;;;;;;5033099;28;20038;-55
2023/12/18 03:40:37;;;;;;;12.83;5.90;;;5.40;99.90;;;;;;5033011;28;20120;-52
2023/12/18 03:43:02;;;;;;;13.40;5.20;;;5.40;99.90;;;;;;5033283;28;20453;-52
2023/12/18 03:45:28;;;;;;;13.83;5.53;;;5.40;99.90;;;;;;5033189;28;20025;-53
2023/12/18 03:47:53;;;;;;;17.27;5.67;;;5.30;99.90;;;;;;5033048;28;20124;-53
2023/12/18 03:50:19;;;;;;;15.90;6.07;;;5.40;99.90;;;;;;5033046;28;20033;-52
2023/12/18 03:52:45;;;;;;;12.43;5.53;;;5.30;99.90;;;;;;5032939;28;20056;-51
2023/12/18 03:55:10;;;;;;;11.80;5.07;;;5.30;99.90;;;;;;5033037;28;20030;-53
2023/12/18 03:57:36;;;;;;;15.13;5.53;;;5.30;99.90;;;;;;5032613;28;20061;-49
2023/12/18 04:00:03;;;;;;;14.80;5.53;;;5.30;99.90;;;;;;5032898;28;20075;-51
2023/12/18 04:02:38;;;;;;;16.40;5.60;;;5.20;99.90;;;;;;5032869;28;20060;-51
2023/12/18 04:05:04;;;;;;;13.53;6.20;;;5.10;99.90;;;;;;5032858;28;20509;-53
2023/12/18 04:07:29;;;;;;;17.30;5.97;;;5.10;99.90;;;;;;5032635;28;20040;-54
2023/12/18 04:09:55;;;;;;;17.57;5.87;;;5.20;99.90;;;;;;5014928;28;20478;-53
2023/12/18 04:12:21;;;;;;;17.10;5.80;;;5.20;99.90;;;;;;5032582;28;20022;-54
2023/12/18 04:14:46;;;;;;;18.07;6.10;;;5.20;99.90;;;;;;5015025;28;20152;-54
2023/12/18 04:17:12;;;;;;;17.23;6.63;;;5.20;99.90;;;;;;5032647;28;20026;-55
2023/12/18 04:19:37;;;;;;;13.60;6.20;;;5.20;99.90;;;;;;5032401;28;20029;-53
2023/12/18 04:22:04;;;;;;;13.17;6.00;;;5.30;99.90;;;;;;5032542;28;20041;-52
2023/12/18 04:24:30;;;;;;;17.27;6.20;;;5.30;99.90;;;;;;5032397;28;20032;-50
2023/12/18 04:26:56;;;;;;;13.83;5.53;;;5.30;99.90;;;;;;5032282;28;20044;-51
2023/12/18 04:29:21;;;;;;;13.67;5.70;;;5.30;99.90;;;;;;5032243;28;20029;-50
2023/12/18 04:31:49;;;;;;;14.30;6.63;;;5.30;99.90;;;;;;5032305;28;20471;-53
2023/12/18 04:34:15;;;;;;;12.60;5.87;;;5.30;99.90;;;;;;5031877;28;20029;-51
2023/12/18 04:36:42;;;;;;;13.93;5.57;;;5.30;99.90;;;;;;5032015;28;20033;-54
2023/12/18 04:39:10;;;;;;;17.97;5.77;;;5.20;99.90;;;;;;5032030;28;20080;-54
2023/12/18 04:41:35;;;;;;;13.67;5.77;;;5.30;99.90;;;;;;5014540;28;20048;-54
2023/12/18 04:44:01;;;;;;;12.37;5.10;;;5.30;99.90;;;;;;5032125;28;20025;-53
2023/12/18 04:46:27;;;;;;;15.27;6.70;;;5.30;99.90;;;;;;5032076;28;20026;-51
2023/12/18 04:48:52;;;;;;;12.67;6.30;;;5.30;99.90;;;;;;5031951;28;20390;-54
2023/12/18 04:51:18;;;;;;;17.87;6.57;;;5.30;99.90;;;;;;5032117;28;20045;-55
2023/12/18 04:53:43;;;;;;;16.93;5.50;;;5.30;99.90;;;;;;5031934;28;20038;-53
2023/12/18 04:56:09;;;;;;;11.17;5.10;;;5.40;99.90;;;;;;5032044;28;20017;-53
2023/12/18 04:58:35;;;;;;;13.93;5.20;;;5.30;99.90;;;;;;5031662;28;20032;-50
2023/12/18 05:01:02;;;;;;;13.60;5.90;;;5.30;99.90;;;;;;5031841;28;20112;-53
2023/12/18 05:03:28;;;;;;;14.33;5.33;;;5.30;99.90;;;;;;5031935;28;20389;-51
2023/12/18 05:05:54;;;;;;;13.10;5.53;;;5.30;99.90;;;;;;5031773;28;20124;-52
2023/12/18 05:08:20;;;;;;;14.33;5.50;;;5.30;99.90;;;;;;5031554;28;20060;-52
2023/12/18 05:10:45;;;;;;;15.20;5.83;;;5.40;99.90;;;;;;5031685;28;20459;-52
2023/12/18 05:13:11;;;;;;;16.47;6.07;;;5.40;99.90;;;;;;5031789;28;20072;-52
2023/12/18 05:15:37;;;;;;;15.70;6.10;;;5.40;99.90;;;;;;5031803;28;20061;-52
2023/12/18 05:18:05;;;;;;;17.20;6.30;;;5.40;99.90;;;;;;5031538;28;20043;-50
2023/12/18 05:20:30;;;;;;;14.87;6.13;;;5.30;99.90;;;;;;5031531;28;20048;-50
2023/12/18 05:22:56;;;;;;;14.27;5.60;;;5.30;99.90;;;;;;5031641;28;20025;-54
2023/12/18 05:25:21;;;;;;;21.30;7.07;;;5.30;99.90;;;;;;5031688;28;20025;-52
2023/12/18 05:27:47;;;;;;;13.27;5.63;;;5.30;99.90;;;;;;5031511;28;20449;-54
2023/12/18 05:30:13;;;;;;;14.87;5.90;;;5.30;99.90;;;;;;5013941;28;20065;-51
2023/12/18 05:32:38;;;;;;;15.47;6.23;;;5.40;99.90;;;;;;5031433;28;20061;-51
2023/12/18 05:35:04;;;;;;;16.27;6.33;;;5.30;99.90;;;;;;5031565;28;20040;-51
2023/12/18 05:37:30;;;;;;;15.47;5.80;;;5.30;99.90;;;;;;5031171;28;20474;-51
2023/12/18 05:39:56;;;;;;;13.40;6.17;;;5.30;99.90;;;;;;5031437;28;20036;-52
2023/12/18 05:42:22;;;;;;;13.57;5.20;;;5.30;99.90;;;;;;5031438;28;20427;-53
2023/12/18 05:44:47;;;;;;;15.20;6.00;;;5.20;99.90;;;;;;5014218;28;20560;-51
2023/12/18 05:47:13;;;;;;;16.87;6.50;;;5.20;99.90;;;;;;5035263;28;20040;-54
2023/12/18 05:49:38;;;;;;;16.23;5.87;;;5.30;99.90;;;;;;5035197;28;20401;-55
2023/12/18 05:52:04;;;;;;;16.13;5.93;;;5.20;99.90;;;;;;5035281;28;20387;-53
2023/12/18 05:54:30;;;;;;;17.03;7.17;;;5.30;99.90;;;;;;5035195;28;20048;-51
2023/12/18 05:56:56;;;;;;;18.53;7.50;;;5.30;99.90;;;;;;5035066;28;20109;-52
2023/12/18 05:59:22;;;;;;;18.83;7.83;;;5.30;99.90;;;;;;5035159;28;20052;-53
2023/12/18 06:01:47;;;;;;;16.93;6.30;;;5.30;99.90;;;;;;5035000;28;20025;-51
2023/12/18 06:04:13;;;;;;;19.37;8.30;;;5.20;99.90;;;;;;5035036;28;20021;-52
2023/12/18 06:06:39;;;;;;;16.90;6.80;;;5.20;99.90;;;;;;5034787;28;20039;-52
2023/12/18 06:09:05;;;;;;;21.40;6.77;;;5.20;99.90;;;;;;5034866;28;20033;-54
2023/12/18 06:11:30;;;;;;;17.80;7.80;;;5.10;99.90;;;;;;5034857;28;20025;-53
2023/12/18 06:13:57;;;;;;;18.57;7.33;;;5.10;99.90;;;;;;5034946;28;20085;-49
2023/12/18 06:16:23;;;;;;;16.17;7.00;;;5.10;99.90;;;;;;5034761;28;20108;-50
2023/12/18 06:18:49;;;;;;;19.33;7.17;;;5.10;99.90;;;;;;5034479;28;20113;-54
2023/12/18 06:21:14;;;;;;;18.97;7.57;;;5.00;99.90;;;;;;5034726;28;20025;-54
2023/12/18 06:23:43;;;;;;;21.37;8.00;;;5.10;99.90;;;;;;5034789;28;20052;-55
2023/12/18 06:26:09;;;;;;;16.40;7.13;;;5.10;99.90;;;;;;5034809;28;20025;-55
2023/12/18 06:28:34;;;;;;;20.10;7.20;;;5.10;99.90;;;;;;5034492;28;20075;-53
2023/12/18 06:31:00;;;;;;;18.03;7.40;;;5.10;99.90;;;;;;5034473;28;20038;-52
2023/12/18 06:33:26;;;;;;;22.23;8.30;;;5.00;99.90;;;;;;5016899;28;20049;-52
2023/12/18 06:35:51;;;;;;;23.70;7.87;;;5.00;99.90;;;;;;5034501;28;20032;-54
2023/12/18 06:38:17;;;;;;;19.10;7.73;;;5.00;99.90;;;;;;5016701;28;20555;-55
2023/12/18 06:40:43;;;;;;;18.13;7.23;;;4.90;99.90;;;;;;5034222;28;20532;-55
2023/12/18 06:43:08;;;;;;;19.73;7.47;;;4.90;99.90;;;;;;5034405;28;20026;-55
2023/12/18 06:45:34;;;;;;;15.37;6.53;;;4.90;99.90;;;;;;5034391;28;20017;-53
2023/12/18 06:48:00;;;;;;;22.60;7.87;;;5.00;99.90;;;;;;5034108;28;20427;-55
2023/12/18 06:50:25;;;;;;;17.53;7.73;;;4.90;99.90;;;;;;5034014;28;20033;-55
2023/12/18 06:52:51;;;;;;;17.17;6.97;;;4.90;99.90;;;;;;5034223;28;20039;-54
2023/12/18 06:55:17;;;;;;;16.70;7.40;;;4.90;99.90;;;;;;5034196;28;20121;-53
2023/12/18 06:57:42;;;;;;;17.83;7.23;;;4.90;99.90;;;;;;5033409;28;20108;-51
2023/12/18 07:00:09;;;;;;;18.27;7.20;;;4.80;99.90;;;;;;5033995;28;20453;-54
2023/12/18 07:02:34;;;;;;;20.73;7.83;;;4.90;99.90;;;;;;5033840;28;20297;-52
2023/12/18 07:05:00;;;;;;;17.03;6.90;;;4.90;99.90;;;;;;5034046;28;20067;-53
2023/12/18 07:07:26;;;;;;;17.50;6.87;;;5.00;99.90;;;;;;5033787;28;20379;-53
2023/12/18 07:09:51;;;;;;;16.53;6.93;;;4.90;99.90;;;;;;5033752;28;20036;-52
2023/12/18 07:12:17;;;;;;;19.20;7.70;;;4.90;99.90;;;;;;5033761;28;20037;-52
2023/12/18 07:14:43;;;;;;;18.83;7.43;;;4.90;99.90;;;;;;5033803;28;20121;-52
2023/12/18 07:17:09;;;;;;;18.67;7.37;;;4.90;99.90;;;;;;5033620;28;20128;-54
2023/12/18 07:19:39;;;;;;;19.27;8.10;;;4.90;99.90;;;;;;5033562;28;20097;-54
2023/12/18 07:22:04;;;;;;;16.57;6.67;;;4.90;99.90;;;;;;5033587;28;20072;-52
2023/12/18 07:24:30;;;;;;;16.60;6.87;;;4.90;99.90;;;;;;5015795;28;20482;-53
2023/12/18 07:26:56;;;;;;;17.53;6.87;;;4.90;99.90;;;;;;5033414;28;20033;-53
2023/12/18 07:29:21;;;;;;;16.00;6.37;;;4.90;99.90;;;;;;5033363;28;20151;-54
2023/12/18 07:31:47;;;;;;;16.07;6.57;;;4.90;99.90;;;;;;5033290;28;20033;-53
2023/12/18 07:34:12;;;;;;;15.17;6.67;;;4.90;99.90;;;;;;5015660;28;20440;-55
2023/12/18 07:36:40;;;;;;;19.13;6.60;;;4.90;99.90;;;;;;5033458;28;20049;-54
2023/12/18 07:39:06;;;;;;;15.90;6.93;;;4.80;99.90;;;;;;5033433;28;20094;-52
2023/12/18 07:41:32;;;;;;;21.43;7.63;;;4.80;99.90;;;;;;5033241;28;20034;-54
2023/12/18 07:43:57;;;;;;;16.97;6.70;;;4.70;99.90;;;;;;5033262;28;20036;-54
2023/12/18 07:46:23;;;;;;;20.77;7.43;;;4.80;99.90;;;;;;5033222;28;20505;-54
2023/12/18 07:48:49;;;;;;;15.63;5.97;;;4.70;99.90;;;;;;5033060;28;20026;-56
2023/12/18 07:51:16;;;;;;;17.97;6.40;;;4.70;99.90;;;;;;5033161;28;20486;-54
2023/12/18 07:53:41;;;;;;;18.93;6.70;;;4.70;99.90;;;;;;5033147;28;20025;-54
2023/12/18 07:56:07;;;;;;;15.73;7.10;;;4.70;99.90;;;;;;5033327;28;20393;-53
2023/12/18 07:58:33;;;;;;;13.97;6.43;;;4.70;99.90;;;;;;5032684;28;20032;-52
2023/12/18 08:00:58;;;;;;;18.80;8.13;;;4.70;99.90;;;;;;5032882;28;20383;-55
2023/12/18 08:03:24;;;;;;;16.97;6.70;;;4.70;99.90;;;;;;5032908;28;20026;-55
2023/12/18 08:05:50;;;;;;;38.20;15.77;;;4.70;99.90;;;;;;5033067;28;20532;-50
2023/12/18 08:08:15;;;;;;;20.60;8.47;;;4.70;99.90;;;;;;5031914;28;20029;-54
2023/12/18 08:10:42;;;;;;;17.80;6.73;;;4.70;99.90;;;;;;5032592;28;20095;-54
2023/12/18 08:13:08;;;;;;;18.70;7.83;;;4.70;99.90;;;;;;5032809;28;20087;-52
2023/12/18 08:15:34;;;;;;;19.23;7.23;;;4.70;99.90;;;;;;5032652;28;20421;-53
2023/12/18 08:17:59;;;;;;;17.10;7.20;;;4.70;99.90;;;;;;5032351;28;20041;-54
2023/12/18 08:20:25;;;;;;;19.87;6.77;;;4.70;99.90;;;;;;5032633;28;20040;-51
2023/12/18 08:22:51;;;;;;;16.93;7.27;;;4.70;99.90;;;;;;5032444;28;20034;-54
2023/12/18 08:25:17;;;;;;;16.53;6.80;;;4.70;99.90;;;;;;5032566;28;20049;-50
2023/12/18 08:27:43;;;;;;;19.30;7.37;;;4.60;99.90;;;;;;5032257;28;20040;-55
2023/12/18 08:30:09;;;;;;;20.13;8.23;;;4.60;99.90;;;;;;5032492;28;20029;-51
2023/12/18 08:32:35;;;;;;;18.07;7.53;;;4.60;99.90;;;;;;5032163;28;20417;-53
2023/12/18 08:35:01;;;;;;;21.77;7.73;;;4.60;99.90;;;;;;5032332;28;20033;-53
2023/12/18 08:37:27;;;;;;;15.27;7.80;;;4.70;99.90;;;;;;5032053;28;20124;-52
2023/12/18 08:39:53;;;;;;;19.20;7.97;;;4.70;99.90;;;;;;5032027;28;20121;-51
2023/12/18 08:42:19;;;;;;;20.87;8.20;;;4.60;99.90;;;;;;5014473;28;20087;-50
2023/12/18 08:44:44;;;;;;;19.30;7.63;;;4.60;99.90;;;;;;5032131;28;20033;-50
2023/12/18 08:47:10;;;;;;;24.03;8.60;;;4.60;99.90;;;;;;5031967;28;20034;-50
2023/12/18 08:49:36;;;;;;;22.80;7.63;;;4.60;99.90;;;;;;5031983;28;20029;-52
2023/12/18 08:52:02;;;;;;;23.20;8.80;;;4.60;99.90;;;;;;5032034;28;20068;-53
2023/12/18 08:54:27;;;;;;;18.67;7.70;;;4.60;99.90;;;;;;5032114;28;20029;-55
2023/12/18 08:56:53;;;;;;;20.30;8.53;;;4.60;99.90;;;;;;5031766;28;20072;-51
2023/12/18 08:59:18;;;;;;;22.10;8.73;;;4.60;99.90;;;;;;5031854;28;20105;-51
2023/12/18 09:01:44;;;;;;;19.73;9.93;;;4.60;99.90;;;;;;5031808;28;20044;-53
2023/12/18 09:04:09;;;;;;;23.37;9.27;;;4.60;99.90;;;;;;5031981;28;20032;-50
2023/12/18 09:06:36;;;;;;;21.93;8.07;;;4.60;99.90;;;;;;5031789;28;20041;-55
2023/12/18 09:09:02;;;;;;;22.23;8.90;;;4.70;99.90;;;;;;5031822;28;20386;-55
2023/12/18 09:11:33;;;;;;;20.30;7.83;;;4.70;99.90;;;;;;5031868;28;20028;-52
2023/12/18 09:14:03;;;;;;;19.33;7.83;;;4.70;99.90;;;;;;5031777;28;20025;-55
2023/12/18 09:16:29;;;;;;;20.37;8.10;;;4.70;99.90;;;;;;5031681;28;20044;-55
2023/12/18 09:18:54;;;;;;;22.07;8.90;;;4.60;99.90;;;;;;5032436;28;20021;-54
2023/12/18 09:21:21;;;;;;;18.83;7.73;;;4.60;99.90;;;;;;5020494;28;20492;-54
2023/12/18 09:23:47;;;;;;;22.23;9.20;;;4.60;99.90;;;;;;5038438;28;20103;-52
2023/12/18 09:26:14;;;;;;;23.60;9.43;;;4.60;99.90;;;;;;5038364;28;20482;-55
2023/12/18 09:28:40;;;;;;;22.27;9.47;;;4.60;99.90;;;;;;5038348;28;20047;-55
2023/12/18 09:31:05;;;;;;;21.93;8.07;;;4.60;99.90;;;;;;5040115;28;20547;-53
2023/12/18 09:33:33;;;;;;;17.83;8.37;;;4.70;99.90;;;;;;5043412;28;20034;-53
2023/12/18 09:35:59;;;;;;;19.97;8.07;;;4.70;99.90;;;;;;5043288;28;20549;-52
2023/12/18 09:38:25;;;;;;;21.07;7.50;;;4.80;99.90;;;;;;5042421;28;20033;-51
2023/12/18 09:40:51;;;;;;;16.70;6.90;;;4.80;99.90;;;;;;5025098;28;20040;-53
2023/12/18 09:43:23;;;;;;;19.93;7.77;;;4.70;99.90;;;;;;5042938;28;20528;-52
2023/12/18 09:45:48;;;;;;;17.90;7.13;;;4.80;99.90;;;;;;5039322;28;20423;-54
2023/12/18 09:48:18;;;;;;;18.73;7.40;;;4.90;99.90;;;;;;5038286;28;20120;-55
2023/12/18 09:50:44;;;;;;;17.03;6.83;;;4.90;99.90;;;;;;5038230;28;20120;-55
2023/12/18 09:53:13;;;;;;;18.83;6.50;;;4.90;99.90;;;;;;5038522;28;20167;-54
2023/12/18 09:55:40;;;;;;;15.48;6.72;;;5.00;99.90;;;;;;5038449;28;20057;-55
2023/12/18 09:58:06;;;;;;;19.37;6.87;;;5.00;99.90;;;;;;5038212;28;20033;-54
2023/12/18 10:00:32;;;;;;;19.53;6.70;;;5.00;99.90;;;;;;5038276;28;20026;-55
2023/12/18 10:02:59;;;;;;;17.77;6.90;;;5.00;99.90;;;;;;5038412;28;20064;-54
2023/12/18 10:05:26;;;;;;;14.37;5.93;;;5.10;99.90;;;;;;5038303;28;20025;-55
2023/12/18 10:07:53;;;;;;;18.10;5.70;;;5.10;99.90;;;;;;5020240;28;20087;-53
2023/12/18 10:10:19;;;;;;;16.97;6.70;;;5.20;99.90;;;;;;5038134;28;20040;-55
2023/12/18 10:12:48;;;;;;;15.43;6.63;;;5.20;99.90;;;;;;5038043;28;20174;-53
2023/12/18 10:15:16;;;;;;;15.80;6.67;;;5.20;99.90;;;;;;5037932;28;20090;-53
2023/12/18 10:17:42;;;;;;;14.43;6.43;;;5.20;99.90;;;;;;5037865;28;20040;-56
2023/12/18 10:20:09;;;;;;;21.73;6.93;;;5.20;99.90;;;;;;5037811;28;20025;-54
2023/12/18 10:22:35;;;;;;;15.20;6.43;;;5.20;99.90;;;;;;5037671;28;20076;-55
2023/12/18 10:25:02;;;;;;;20.60;6.80;;;5.20;99.90;;;;;;5037745;28;20025;-53
2023/12/18 10:27:32;;;;;;;18.73;6.60;;;5.20;99.90;;;;;;5037605;28;20087;-55
2023/12/18 10:29:57;;;;;;;23.60;7.17;;;5.30;99.90;;;;;;5037638;28;20049;-53
2023/12/18 10:32:25;;;;;;;18.13;6.70;;;5.30;99.90;;;;;;5033872;28;20520;-53
2023/12/18 10:34:51;;;;;;;13.83;5.87;;;5.30;99.90;;;;;;5034542;28;20402;-55
2023/12/18 10:37:19;;;;;;;15.40;6.77;;;5.40;99.90;;;;;;5034219;28;20036;-55
2023/12/18 10:39:48;;;;;;;17.53;7.33;;;5.40;99.90;;;;;;5034105;28;20033;-53
2023/12/18 10:42:30;;;;;;;15.53;6.73;;;5.30;99.90;;;;;;5034386;28;20034;-52
2023/12/18 10:44:58;;;;;;;15.33;6.87;;;5.30;99.90;;;;;;5034461;28;20057;-53
2023/12/18 10:47:25;;;;;;;13.83;6.87;;;5.40;99.90;;;;;;5034267;28;20486;-52
2023/12/18 10:49:53;;;;;;;17.30;6.97;;;5.40;99.90;;;;;;5034105;28;20402;-53
2023/12/18 10:52:20;;;;;;;13.73;6.77;;;5.40;99.90;;;;;;5034310;28;20064;-52
2023/12/18 10:54:48;;;;;;;19.77;7.00;;;5.40;99.90;;;;;;5034281;28;20394;-55
2023/12/18 10:57:17;;;;;;;14.73;6.73;;;5.40;99.90;;;;;;5033978;28;20059;-54
2023/12/18 10:59:47;;;;;;;15.52;6.32;;;5.40;99.90;;;;;;5034098;28;20029;-55
2023/12/18 11:02:15;;;;;;;14.07;6.20;;;5.40;99.90;;;;;;5034107;28;20029;-54
2023/12/18 11:04:48;;;;;;;17.20;5.60;;;5.50;99.90;;;;;;5033996;28;20037;-52
2023/12/18 11:07:17;;;;;;;16.27;6.50;;;5.60;99.90;;;;;;5033849;28;20076;-54
2023/12/18 11:09:46;;;;;;;14.00;5.68;;;5.50;99.90;;;;;;5033866;28;20052;-55
2023/12/18 11:12:14;;;;;;;13.50;6.30;;;5.50;99.90;;;;;;5033742;28;20041;-54
2023/12/18 11:14:59;;;;;;;18.47;6.20;;;5.50;99.90;;;;;;5033743;28;20037;-55
2023/12/18 11:17:55;;;;;;;13.63;5.60;;;5.50;99.90;;;;;;5033455;28;20044;-56
2023/12/18 11:20:35;;;;;;;16.87;5.83;;;5.50;99.90;;;;;;5033662;28;20087;-51
2023/12/18 11:23:00;;;;;;;17.10;6.03;;;5.60;99.90;;;;;;5033744;28;20064;-55
2023/12/18 11:25:46;;;;;;;13.20;5.23;;;5.60;99.90;;;;;;5033600;28;20060;-54
2023/12/18 11:28:12;;;;;;;11.30;5.10;;;5.50;99.90;;;;;;5033324;28;20029;-55
2023/12/18 11:30:44;;;;;;;15.60;5.23;;;5.60;99.90;;;;;;5033539;28;20112;-55
2023/12/18 11:33:13;;;;;;;14.87;5.97;;;5.60;99.90;;;;;;5033433;28;20042;-53
2023/12/18 11:35:45;;;;;;;15.20;5.60;;;5.60;99.90;;;;;;5033418;28;20040;-51
2023/12/18 11:38:14;;;;;;;10.63;4.93;;;5.60;99.90;;;;;;5033212;28;20470;-55
2023/12/18 11:40:42;;;;;;;12.07;4.93;;;5.60;99.90;;;;;;5033180;28;20440;-55
2023/12/18 11:43:12;;;;;;;14.77;5.97;;;5.60;99.90;;;;;;5032167;28;20028;-54
2023/12/18 11:45:42;;;;;;;13.47;4.73;;;5.70;99.90;;;;;;5033310;28;20040;-51
2023/12/18 11:48:12;;;;;;;12.90;5.03;;;5.70;99.90;;;;;;5033101;28;20030;-54
2023/12/18 11:50:38;;;;;;;11.07;4.77;;;5.60;99.90;;;;;;5033126;28;20398;-54
2023/12/18 11:53:19;;;;;;;14.20;5.00;;;5.60;99.90;;;;;;5033133;28;20033;-52
2023/12/18 11:55:52;;;;;;;13.07;4.80;;;5.70;99.90;;;;;;5015454;28;20569;-53
2023/12/18 11:58:25;;;;;;;11.73;4.83;;;5.70;99.90;;;;;;5032910;28;20037;-54
2023/12/18 12:00:51;;;;;;;12.37;5.63;;;5.70;99.90;;;;;;5032940;28;20048;-53
2023/12/18 12:03:18;;;;;;;14.03;5.47;;;5.70;99.90;;;;;;5032967;28;20060;-55
2023/12/18 12:05:45;;;;;;;16.23;5.57;;;5.70;99.90;;;;;;5015187;28;20029;-55
2023/12/18 12:08:11;;;;;;;13.73;4.50;;;5.70;99.90;;;;;;5032819;28;20041;-55
2023/12/18 12:10:48;;;;;;;13.87;5.13;;;5.70;99.90;;;;;;5032778;28;20032;-54
2023/12/18 12:13:18;;;;;;;11.90;4.40;;;5.70;99.90;;;;;;5032614;28;20033;-54
2023/12/18 12:15:58;;;;;;;12.60;5.27;;;5.70;99.90;;;;;;5032784;28;20029;-51
2023/12/18 12:18:33;;;;;;;11.40;4.43;;;5.70;99.90;;;;;;5032442;28;20477;-53
2023/12/18 12:20:59;;;;;;;13.13;5.23;;;5.70;99.90;;;;;;5032791;28;20402;-54
2023/12/18 12:23:25;;;;;;;11.27;4.60;;;5.70;99.90;;;;;;5032654;28;20462;-50
2023/12/18 12:25:52;;;;;;;12.40;5.53;;;5.70;99.90;;;;;;5032429;28;20029;-55
2023/12/18 12:28:18;;;;;;;12.30;5.30;;;5.70;99.90;;;;;;5032359;28;20409;-52
2023/12/18 12:30:44;;;;;;;13.70;5.00;;;5.70;99.90;;;;;;5032338;28;20048;-52
2023/12/18 12:33:10;;;;;;;10.27;4.53;;;5.80;99.90;;;;;;5032315;28;20037;-50
2023/12/18 12:35:36;;;;;;;11.43;4.90;;;5.70;99.90;;;;;;5032285;28;20040;-50
2023/12/18 12:38:03;;;;;;;12.17;4.87;;;5.80;99.90;;;;;;5032049;28;20029;-52
2023/12/18 12:40:45;;;;;;;14.47;5.33;;;5.70;99.90;;;;;;5032246;28;20029;-51
2023/12/18 12:43:15;;;;;;;9.50;4.23;;;5.80;99.90;;;;;;5032189;28;20031;-50
2023/12/18 12:45:43;;;;;;;12.00;5.40;;;5.70;99.90;;;;;;5032307;28;20031;-52